Bear Town, Mississippi
Current Conditions -  °F | °C
As of 4:53 AM on Thursday 23 Oct 2014 (Local Time) from KMCB Reporting Station
Clear Clear  
Wind Chill: 52°   Ceiling: Unl
Heat Index: 52°   Visibility: 10mi
Dew Point: 45°   Wind: 5mph
Humidity: 77%   Direction: 20°NNE
Pressure: 30.09"   Gusts: NA
Location:  31.1693°N, 90.3678°W
Report Text: KMCB 230953Z AUTO 02004KT 10SM CLR 11/07 A3009 RMK AO2 SLP185 T01110072
Loading
Personal Weather Stations






























Interactive Weather Map
Tropical Storm Tracking
New forecast layout! Learn more

10-Day Weather Forecast

Advertisements
Track Severe Weather on mobile